Racecast

Jayla Miles

Stockton Starz (CA) · 13-14 · Compare head to head

Athlete rating
Races 46
Seasons 5 2010 — 2014
Speed rating — all races

Track & Field

TF speed rating

2014 TF

Stockton Starz (CA) · Grade 13-14

Date Meet Event Result Place Rating Difficulty PR/SR Flags
2014-05-31 Pacific Association Championships (PAC) 100m 13.29 12th · 2nd on team -0.024
2014-05-31 Pacific Association Championships (PAC) 200m 26.71 11th · 2nd on team -0.024 PR SR
2014-05-31 Pacific Association Championships (PAC) 200m 26.63 10th · 1st on team -0.024 ★PR SR
2014-05-31 Pacific Association Championships (PAC) 100m 13.13 10th · 1st on team -0.024
2014-05-25 Los Angeles Jets Invitational 100m 12.92 15th · 1st on team -0.028 ★PR SR
2014-05-18 3M Invitational 200m 27.67 7th · 2nd on team -0.028
2014-05-18 3M Invitational 100m 13.2 10th · 2nd on team -0.028
2014-05-18 3M Invitational 100m 13.08 7th · 1st on team -0.028
2014-04-12 Stocton Saints 200m 27.63 5th · 2nd on team -0.027 SR
2014-04-12 Stocton Saints 100m 13.22 3rd · 1st on team -0.027
2014-04-05 Sacramento Speed Showcase 100m 12.94 8th · 1st on team -0.033 PR SR
2014-03-22 RPM 100m 13.64 7th · 1st on team -0.012 SR

2013 TF

Stockton Starz (CA) · Grade 13-14

Date Meet Event Result Place Rating Difficulty PR/SR Flags
2013-04-06 Sacramento Speed Showcase 200m 27.85 3rd · 1st on team -0.031 SR
2013-04-06 Sacramento Speed Showcase 400m 1:14.34 30th · 2nd on team -0.031 SR
2013-04-06 Sacramento Speed Showcase 100m 13.62 4th · 1st on team -0.031 SR
2013-03-30 Stockton Saints 400m 1:19.9 41st · 1st on team -0.016 SR
2013-03-30 Stockton Saints 100m 13.63 11th · 1st on team -0.016 SR

2012 TF

Stockton Starz (CA) · Grade 11-12

Date Meet Event Result Place Rating Difficulty PR/SR Flags
2012-06-09 Pacific Association Youth Championships 100m 13.59 8th · 2nd on team -0.034
2012-06-09 Pacific Association Youth Championships 100m 13.34 4th · 1st on team -0.034 PR SR
2012-06-09 Pacific Association Youth Championships 200m 27.76 8th · 3rd on team -0.034
2012-06-09 Pacific Association Youth Championships 200m 28.34 12th · 5th on team -0.034
2012-05-19 3M Track Meet 100m 14.12 19th · 4th on team -0.031
2012-05-19 3M Track Meet 200m 28.43 12th · 2nd on team -0.031
2012-05-05 Hercules Running Rebels / Top Pacers Invitational 100m 13.62 8th · 2nd on team -0.038 PR SR
2012-05-05 Hercules Running Rebels / Top Pacers Invitational 200m 27.49 6th · 1st on team -0.038 PR SR
2012-05-05 Hercules Running Rebels / Top Pacers Invitational 100m 13.56 7th · 1st on team -0.038 PR SR
2012-04-21 Shor / Sheppard Classic 100m 13.68 4th · 1st on team -0.022 PR SR
2012-04-21 Shor / Sheppard Classic 400m 1:11.22 21st · 3rd on team -0.022 ★PR SR
2012-04-07 Phenom Elite 100m 13.7 4th · 1st on team -0.022 PR SR

2011 TF

Stockton Starz (CA) · Grade 11-12

Date Meet Event Result Place Rating Difficulty PR/SR Flags
2011-05-21 Hercules Running Rebels & Top Pacers Track Club Invitational 200m 29.21 18th · 3rd on team -0.038 PR SR
2011-05-21 Hercules Running Rebels & Top Pacers Track Club Invitational 100m 14.24 27th · 3rd on team -0.038
2011-05-14 3M Track Club Invitational 200m 29.8 15th · 2nd on team -0.028 PR SR
2011-05-14 3M Track Club Invitational 100m 14.58 28th · 1st on team -0.028
2011-04-15 CA Track Club Invitational Meet 400m 1:17.39 28th · 2nd on team -0.033 PR SR
2011-04-15 CA Track Club Invitational Meet 200m 29.84 11th · 1st on team -0.033 PR SR
2011-04-15 CA Track Club Invitational Meet 100m 14.21 12th · 1st on team -0.033 PR SR

2010 TF

Stockton Starz (CA) · Grade 9-10

Date Meet Event Result Place Rating Difficulty PR/SR Flags
2010-07-09 USATF Region 16 Junior Olympic T&F Championships 200m 31.84 30th · 2nd on team -0.024
2010-06-19 Hercules Running Rebels 100m 15.2 8th · 3rd on team -0.038
2010-06-19 Hercules Running Rebels 200m 32.27 10th · 2nd on team -0.038
2010-05-29 LA Jets Invitational 100m 15.38 44th · 3rd on team -0.035
2010-05-29 LA Jets Invitational 200m 31.31 29th · 3rd on team -0.035 PR SR
2010-05-22 Central Valley Roadrunners 100m 14.88 8th · 2nd on team -0.024 PR SR
2010-05-01 UMOJA 100m 15.2 20th · 3rd on team -0.016 PR SR
2010-05-01 UMOJA 200m 32.7 23rd · 3rd on team -0.016 PR SR
2010-04-17 Roseville PAL Express Track Club 100m 15.34 7th · 2nd on team -0.024 PR SR
2010-04-17 Roseville PAL Express Track Club 200m 42.83 35th · 4th on team -0.024 PR SR